sensor_id;sensor_type;location;lat;lon;timestamp;pressure;altitude;pressure_sealevel;temperature;humidity
3844;BME280;1937;51.444;6.484;2023-03-04T00:01:02;66778.91;;;5.62;75.79
3844;BME280;1937;51.444;6.484;2023-03-04T00:03:30;66771.41;;;5.56;76.13
3844;BME280;1937;51.444;6.484;2023-03-04T00:05:58;66763.09;;;5.66;75.66
3844;BME280;1937;51.444;6.484;2023-03-04T00:08:27;66811.63;;;5.66;76.13
3844;BME280;1937;51.444;6.484;2023-03-04T00:10:55;66789.38;;;5.60;76.91
3844;BME280;1937;51.444;6.484;2023-03-04T00:13:24;66779.16;;;5.60;77.04
3844;BME280;1937;51.444;6.484;2023-03-04T00:15:53;66765.81;;;5.60;76.53
3844;BME280;1937;51.444;6.484;2023-03-04T00:18:22;66800.09;;;5.72;76.03
3844;BME280;1937;51.444;6.484;2023-03-04T00:20:50;66777.03;;;5.67;76.38
3844;BME280;1937;51.444;6.484;2023-03-04T00:23:18;66802.66;;;5.72;76.24
3844;BME280;1937;51.444;6.484;2023-03-04T00:25:46;66780.84;;;5.73;76.48
3844;BME280;1937;51.444;6.484;2023-03-04T00:28:15;66805.63;;;5.79;76.27
3844;BME280;1937;51.444;6.484;2023-03-04T00:30:45;66799.47;;;5.83;75.93
3844;BME280;1937;51.444;6.484;2023-03-04T00:33:14;66819.88;;;5.94;75.35
3844;BME280;1937;51.444;6.484;2023-03-04T00:35:43;66767.34;;;5.79;75.51
3844;BME280;1937;51.444;6.484;2023-03-04T00:38:11;66803.44;;;5.82;76.20
3844;BME280;1937;51.444;6.484;2023-03-04T00:40:39;66796.09;;;5.84;75.88
3844;BME280;1937;51.444;6.484;2023-03-04T00:43:08;66795.56;;;5.72;76.32
3844;BME280;1937;51.444;6.484;2023-03-04T00:45:36;66827.59;;;5.71;76.51
3844;BME280;1937;51.444;6.484;2023-03-04T00:48:06;66792.44;;;5.72;76.92
3844;BME280;1937;51.444;6.484;2023-03-04T00:50:34;66793.13;;;5.77;76.28
3844;BME280;1937;51.444;6.484;2023-03-04T00:53:03;66799.94;;;5.78;76.60
3844;BME280;1937;51.444;6.484;2023-03-04T00:55:32;66799.94;;;5.78;76.25
3844;BME280;1937;51.444;6.484;2023-03-04T00:58:01;66821.09;;;5.72;76.66
3844;BME280;1937;51.444;6.484;2023-03-04T01:00:30;66804.25;;;5.80;76.37
3844;BME280;1937;51.444;6.484;2023-03-04T01:02:58;66833.81;;;5.84;75.80
3844;BME280;1937;51.444;6.484;2023-03-04T01:05:29;66809.16;;;5.98;75.45
3844;BME280;1937;51.444;6.484;2023-03-04T01:07:58;66812.53;;;5.69;76.54
3844;BME280;1937;51.444;6.484;2023-03-04T01:10:26;66800.63;;;5.84;76.69
3844;BME280;1937;51.444;6.484;2023-03-04T01:12:55;66808.09;;;6.01;75.59
3844;BME280;1937;51.444;6.484;2023-03-04T01:15:24;66794.41;;;5.98;75.75
3844;BME280;1937;51.444;6.484;2023-03-04T01:17:52;66815.00;;;5.92;75.94
3844;BME280;1937;51.444;6.484;2023-03-04T01:20:20;66809.81;;;5.87;76.11
3844;BME280;1937;51.444;6.484;2023-03-04T01:22:50;66826.88;;;5.77;76.69
3844;BME280;1937;51.444;6.484;2023-03-04T01:25:18;66820.56;;;5.61;77.39
3844;BME280;1937;51.444;6.484;2023-03-04T01:27:47;66813.03;;;5.65;77.71
3844;BME280;1937;51.444;6.484;2023-03-04T01:30:15;66780.00;;;5.59;77.59
3844;BME280;1937;51.444;6.484;2023-03-04T01:32:43;66787.81;;;5.68;77.51
3844;BME280;1937;51.444;6.484;2023-03-04T01:35:12;66814.66;;;5.89;76.68
3844;BME280;1937;51.444;6.484;2023-03-04T01:37:40;66810.75;;;5.79;76.84
3844;BME280;1937;51.444;6.484;2023-03-04T01:40:13;66832.44;;;5.85;77.08
3844;BME280;1937;51.444;6.484;2023-03-04T01:42:42;66844.25;;;5.93;76.15
3844;BME280;1937;51.444;6.484;2023-03-04T01:45:14;66822.31;;;5.89;76.59
3844;BME280;1937;51.444;6.484;2023-03-04T01:47:45;66825.03;;;5.71;77.16
3844;BME280;1937;51.444;6.484;2023-03-04T01:50:19;66807.75;;;5.72;77.26
3844;BME280;1937;51.444;6.484;2023-03-04T01:52:47;66785.56;;;5.55;78.29
3844;BME280;1937;51.444;6.484;2023-03-04T01:55:19;66840.63;;;5.69;77.91
3844;BME280;1937;51.444;6.484;2023-03-04T01:57:49;66779.66;;;5.72;77.91
3844;BME280;1937;51.444;6.484;2023-03-04T02:00:28;66793.06;;;5.61;78.08
3844;BME280;1937;51.444;6.484;2023-03-04T02:02:59;66822.09;;;5.91;77.05
3844;BME280;1937;51.444;6.484;2023-03-04T02:05:30;66821.41;;;5.86;76.68
3844;BME280;1937;51.444;6.484;2023-03-04T02:07:59;66752.22;;;5.61;77.53
3844;BME280;1937;51.444;6.484;2023-03-04T02:10:29;66794.72;;;5.58;77.65
3844;BME280;1937;51.444;6.484;2023-03-04T02:12:59;66825.84;;;5.81;77.34
3844;BME280;1937;51.444;6.484;2023-03-04T02:15:29;66797.25;;;5.85;76.29
3844;BME280;1937;51.444;6.484;2023-03-04T02:17:57;66848.16;;;6.03;75.98
3844;BME280;1937;51.444;6.484;2023-03-04T02:20:42;66835.56;;;5.85;76.03
3844;BME280;1937;51.444;6.484;2023-03-04T02:23:16;66809.84;;;5.76;76.05
3844;BME280;1937;51.444;6.484;2023-03-04T02:25:49;66796.97;;;5.71;76.84
3844;BME280;1937;51.444;6.484;2023-03-04T02:28:22;66810.38;;;5.88;76.66
3844;BME280;1937;51.444;6.484;2023-03-04T02:30:50;66794.19;;;5.73;76.54
3844;BME280;1937;51.444;6.484;2023-03-04T02:33:19;66810.59;;;5.86;76.01
3844;BME280;1937;51.444;6.484;2023-03-04T02:35:47;66848.47;;;5.78;75.88
3844;BME280;1937;51.444;6.484;2023-03-04T02:38:15;66817.50;;;5.76;76.92
3844;BME280;1937;51.444;6.484;2023-03-04T02:40:47;66817.66;;;5.96;76.32
3844;BME280;1937;51.444;6.484;2023-03-04T02:43:18;66821.03;;;5.95;75.97
3844;BME280;1937;51.444;6.484;2023-03-04T02:45:49;66815.13;;;5.85;75.84
3844;BME280;1937;51.444;6.484;2023-03-04T02:48:20;66771.53;;;5.76;76.28
3844;BME280;1937;51.444;6.484;2023-03-04T02:50:52;66787.63;;;5.86;75.85
3844;BME280;1937;51.444;6.484;2023-03-04T02:53:22;66782.97;;;5.93;76.09
3844;BME280;1937;51.444;6.484;2023-03-04T02:55:51;66797.06;;;5.76;76.35
3844;BME280;1937;51.444;6.484;2023-03-04T02:58:22;66792.13;;;5.69;76.92
3844;BME280;1937;51.444;6.484;2023-03-04T03:00:51;66812.09;;;5.89;76.62
3844;BME280;1937;51.444;6.484;2023-03-04T03:03:20;66841.00;;;6.14;75.81
3844;BME280;1937;51.444;6.484;2023-03-04T03:05:48;66802.63;;;5.83;76.38
3844;BME280;1937;51.444;6.484;2023-03-04T03:08:18;66836.91;;;5.95;76.00
3844;BME280;1937;51.444;6.484;2023-03-04T03:10:48;66810.06;;;5.74;76.94
3844;BME280;1937;51.444;6.484;2023-03-04T03:13:16;66794.59;;;5.81;76.52
3844;BME280;1937;51.444;6.484;2023-03-04T03:15:45;66798.91;;;5.82;76.97
3844;BME280;1937;51.444;6.484;2023-03-04T03:18:15;66824.75;;;5.85;76.38
3844;BME280;1937;51.444;6.484;2023-03-04T03:20:44;66793.03;;;5.72;76.89
3844;BME280;1937;51.444;6.484;2023-03-04T03:23:12;66788.25;;;5.75;76.76
3844;BME280;1937;51.444;6.484;2023-03-04T03:25:41;66772.75;;;5.66;77.63
3844;BME280;1937;51.444;6.484;2023-03-04T03:28:10;66762.34;;;5.57;77.62
3844;BME280;1937;51.444;6.484;2023-03-04T03:30:38;66800.78;;;5.77;76.75
3844;BME280;1937;51.444;6.484;2023-03-04T03:33:07;66755.88;;;5.73;76.20
3844;BME280;1937;51.444;6.484;2023-03-04T03:35:36;66790.63;;;5.66;76.72
3844;BME280;1937;51.444;6.484;2023-03-04T03:38:04;66787.19;;;5.78;76.62
3844;BME280;1937;51.444;6.484;2023-03-04T03:40:33;66802.72;;;5.61;77.36
3844;BME280;1937;51.444;6.484;2023-03-04T03:43:01;66769.38;;;5.67;77.31
3844;BME280;1937;51.444;6.484;2023-03-04T03:45:29;66795.72;;;5.66;77.67
3844;BME280;1937;51.444;6.484;2023-03-04T03:47:58;66842.00;;;5.68;77.25
3844;BME280;1937;51.444;6.484;2023-03-04T03:50:26;66806.72;;;5.75;77.97
3844;BME280;1937;51.444;6.484;2023-03-04T03:52:57;66803.09;;;5.79;77.66
3844;BME280;1937;51.444;6.484;2023-03-04T03:55:25;66787.19;;;5.78;77.43
3844;BME280;1937;51.444;6.484;2023-03-04T03:57:54;66788.47;;;5.57;77.79
3844;BME280;1937;51.444;6.484;2023-03-04T04:00:23;66767.81;;;5.59;78.39
3844;BME280;1937;51.444;6.484;2023-03-04T04:02:52;66814.22;;;5.82;77.96
3844;BME280;1937;51.444;6.484;2023-03-04T04:05:21;66845.06;;;5.91;77.04
3844;BME280;1937;51.444;6.484;2023-03-04T04:07:50;66811.97;;;5.69;78.40
3844;BME280;1937;51.444;6.484;2023-03-04T04:10:20;66782.94;;;5.66;78.46
3844;BME280;1937;51.444;6.484;2023-03-04T04:12:48;66806.94;;;5.73;78.74
3844;BME280;1937;51.444;6.484;2023-03-04T04:15:16;66788.06;;;5.66;78.91
3844;BME280;1937;51.444;6.484;2023-03-04T04:17:45;66788.06;;;5.66;79.07
3844;BME280;1937;51.444;6.484;2023-03-04T04:20:13;66814.47;;;5.80;78.64
3844;BME280;1937;51.444;6.484;2023-03-04T04:22:42;66821.25;;;5.66;78.88
3844;BME280;1937;51.444;6.484;2023-03-04T04:25:11;66812.09;;;5.62;78.61
3844;BME280;1937;51.444;6.484;2023-03-04T04:27:40;66785.19;;;5.63;78.36
3844;BME280;1937;51.444;6.484;2023-03-04T04:30:10;66789.72;;;5.63;78.84
3844;BME280;1937;51.444;6.484;2023-03-04T04:32:39;66812.69;;;5.63;79.12
3844;BME280;1937;51.444;6.484;2023-03-04T04:35:08;66812.97;;;5.76;78.31
3844;BME280;1937;51.444;6.484;2023-03-04T04:37:37;66815.41;;;5.72;78.36
3844;BME280;1937;51.444;6.484;2023-03-04T04:40:06;66809.94;;;5.54;78.50
3844;BME280;1937;51.444;6.484;2023-03-04T04:42:35;66807.81;;;5.61;77.76
3844;BME280;1937;51.444;6.484;2023-03-04T04:45:07;66797.03;;;5.60;77.37
3844;BME280;1937;51.444;6.484;2023-03-04T04:47:35;66742.44;;;5.53;77.95
3844;BME280;1937;51.444;6.484;2023-03-04T04:50:05;66809.63;;;5.67;77.06
3844;BME280;1937;51.444;6.484;2023-03-04T04:52:34;66819.22;;;5.77;76.83
3844;BME280;1937;51.444;6.484;2023-03-04T04:55:02;66789.41;;;5.76;76.90
3844;BME280;1937;51.444;6.484;2023-03-04T04:57:31;66800.69;;;5.72;76.72
3844;BME280;1937;51.444;6.484;2023-03-04T05:00:00;66764.28;;;5.67;76.95
3844;BME280;1937;51.444;6.484;2023-03-04T05:02:30;66806.13;;;5.75;77.09
3844;BME280;1937;51.444;6.484;2023-03-04T05:05:02;66787.00;;;5.69;77.54
3844;BME280;1937;51.444;6.484;2023-03-04T05:07:32;66811.00;;;5.77;77.85
3844;BME280;1937;51.444;6.484;2023-03-04T05:10:00;66856.72;;;5.79;77.56
3844;BME280;1937;51.444;6.484;2023-03-04T05:12:29;66817.94;;;5.83;77.43
3844;BME280;1937;51.444;6.484;2023-03-04T05:14:57;66795.72;;;5.66;78.00
3844;BME280;1937;51.444;6.484;2023-03-04T05:17:27;66794.00;;;5.64;78.32
3844;BME280;1937;51.444;6.484;2023-03-04T05:19:57;66786.34;;;5.64;78.76
3844;BME280;1937;51.444;6.484;2023-03-04T05:22:25;66791.53;;;5.69;78.16
3844;BME280;1937;51.444;6.484;2023-03-04T05:24:53;66802.91;;;5.70;78.28
3844;BME280;1937;51.444;6.484;2023-03-04T05:27:22;66820.69;;;5.65;78.32
3844;BME280;1937;51.444;6.484;2023-03-04T05:29:51;66772.81;;;5.55;78.22
3844;BME280;1937;51.444;6.484;2023-03-04T05:32:21;66770.00;;;5.57;77.98
3844;BME280;1937;51.444;6.484;2023-03-04T05:34:50;66815.91;;;5.68;77.25
3844;BME280;1937;51.444;6.484;2023-03-04T05:37:19;66817.16;;;5.73;76.70
3844;BME280;1937;51.444;6.484;2023-03-04T05:39:47;66812.91;;;5.61;77.19
3844;BME280;1937;51.444;6.484;2023-03-04T05:42:16;66779.16;;;5.60;77.28
3844;BME280;1937;51.444;6.484;2023-03-04T05:44:44;66816.13;;;5.66;77.56
3844;BME280;1937;51.444;6.484;2023-03-04T05:47:12;66802.44;;;5.47;78.12
3844;BME280;1937;51.444;6.484;2023-03-04T05:49:40;66793.94;;;5.49;78.78
3844;BME280;1937;51.444;6.484;2023-03-04T05:52:10;66817.22;;;5.62;78.12
3844;BME280;1937;51.444;6.484;2023-03-04T05:54:40;66843.94;;;5.79;77.27
3844;BME280;1937;51.444;6.484;2023-03-04T05:57:08;66822.13;;;5.80;77.31
3844;BME280;1937;51.444;6.484;2023-03-04T05:59:36;66812.41;;;5.76;77.28
3844;BME280;1937;51.444;6.484;2023-03-04T06:02:04;66828.63;;;5.79;77.85
3844;BME280;1937;51.444;6.484;2023-03-04T06:04:33;66815.91;;;5.68;77.98
3844;BME280;1937;51.444;6.484;2023-03-04T06:07:01;66828.88;;;5.77;77.66
3844;BME280;1937;51.444;6.484;2023-03-04T06:09:29;66807.19;;;5.71;77.82
3844;BME280;1937;51.444;6.484;2023-03-04T06:11:59;66801.66;;;5.64;77.66
3844;BME280;1937;51.444;6.484;2023-03-04T06:14:27;66786.72;;;5.56;78.17
3844;BME280;1937;51.444;6.484;2023-03-04T06:16:55;66792.75;;;5.59;78.65
3844;BME280;1937;51.444;6.484;2023-03-04T06:19:24;66794.38;;;5.56;78.24
3844;BME280;1937;51.444;6.484;2023-03-04T06:21:52;66820.06;;;5.76;78.18
3844;BME280;1937;51.444;6.484;2023-03-04T06:24:20;66790.28;;;5.63;78.05
3844;BME280;1937;51.444;6.484;2023-03-04T06:26:49;66826.88;;;5.77;78.09
3844;BME280;1937;51.444;6.484;2023-03-04T06:29:18;66807.19;;;5.71;78.25
3844;BME280;1937;51.444;6.484;2023-03-04T06:31:46;66835.94;;;5.88;77.75
3844;BME280;1937;51.444;6.484;2023-03-04T06:34:15;66840.72;;;5.74;78.47
3844;BME280;1937;51.444;6.484;2023-03-04T06:36:43;66808.91;;;5.73;78.49
3844;BME280;1937;51.444;6.484;2023-03-04T06:39:11;66815.28;;;5.78;78.61
3844;BME280;1937;51.444;6.484;2023-03-04T06:41:40;66857.97;;;5.85;78.70
3844;BME280;1937;51.444;6.484;2023-03-04T06:44:08;66883.75;;;5.83;78.88
3844;BME280;1937;51.444;6.484;2023-03-04T06:46:38;66803.66;;;5.80;79.15
3844;BME280;1937;51.444;6.484;2023-03-04T06:49:06;66795.47;;;5.68;79.63
3844;BME280;1937;51.444;6.484;2023-03-04T06:51:35;66825.44;;;5.63;80.84
3844;BME280;1937;51.444;6.484;2023-03-04T06:54:04;66830.91;;;5.65;80.97
3844;BME280;1937;51.444;6.484;2023-03-04T06:56:32;66808.66;;;5.48;81.00
3844;BME280;1937;51.444;6.484;2023-03-04T06:59:01;66823.63;;;5.57;81.02
3844;BME280;1937;51.444;6.484;2023-03-04T07:01:30;66813.50;;;5.61;81.40
3844;BME280;1937;51.444;6.484;2023-03-04T07:04:00;66799.69;;;5.65;81.64
3844;BME280;1937;51.444;6.484;2023-03-04T07:06:29;66844.84;;;5.93;80.63
3844;BME280;1937;51.444;6.484;2023-03-04T07:08:58;66837.09;;;5.77;81.21
3844;BME280;1937;51.444;6.484;2023-03-04T07:11:27;66883.97;;;5.92;81.22
3844;BME280;1937;51.444;6.484;2023-03-04T07:13:55;66835.50;;;5.69;81.56
3844;BME280;1937;51.444;6.484;2023-03-04T07:16:24;66902.22;;;6.10;80.43
3844;BME280;1937;51.444;6.484;2023-03-04T07:18:52;66885.78;;;5.98;80.57
3844;BME280;1937;51.444;6.484;2023-03-04T07:21:21;66819.56;;;5.80;81.38
3844;BME280;1937;51.444;6.484;2023-03-04T07:23:50;66865.59;;;5.96;81.29
3844;BME280;1937;51.444;6.484;2023-03-04T07:26:18;66899.28;;;6.18;80.92
3844;BME280;1937;51.444;6.484;2023-03-04T07:28:46;66875.97;;;6.16;79.95
3844;BME280;1937;51.444;6.484;2023-03-04T07:31:19;66899.53;;;6.16;80.62
3844;BME280;1937;51.444;6.484;2023-03-04T07:33:48;66902.66;;;6.17;80.38
3844;BME280;1937;51.444;6.484;2023-03-04T07:36:17;66929.38;;;6.18;79.91
3844;BME280;1937;51.444;6.484;2023-03-04T07:38:49;66880.19;;;6.29;80.03
3844;BME280;1937;51.444;6.484;2023-03-04T07:41:19;66845.59;;;6.03;80.59
3844;BME280;1937;51.444;6.484;2023-03-04T07:43:48;66895.47;;;6.13;79.95
3844;BME280;1937;51.444;6.484;2023-03-04T07:46:17;66925.94;;;6.31;79.45
3844;BME280;1937;51.444;6.484;2023-03-04T07:48:47;66930.81;;;6.33;79.44
3844;BME280;1937;51.444;6.484;2023-03-04T07:51:17;66898.91;;;6.27;79.12
3844;BME280;1937;51.444;6.484;2023-03-04T07:53:50;66909.78;;;6.32;80.04
3844;BME280;1937;51.444;6.484;2023-03-04T07:56:21;66951.66;;;6.51;80.38
3844;BME280;1937;51.444;6.484;2023-03-04T07:58:51;66935.03;;;6.30;81.22
3844;BME280;1937;51.444;6.484;2023-03-04T08:01:21;66917.03;;;6.52;80.59
3844;BME280;1937;51.444;6.484;2023-03-04T08:03:51;66912.50;;;6.26;81.80
3844;BME280;1937;51.444;6.484;2023-03-04T08:06:21;66975.09;;;6.31;83.77
3844;BME280;1937;51.444;6.484;2023-03-04T08:08:56;66909.09;;;6.11;84.99
3844;BME280;1937;51.444;6.484;2023-03-04T08:11:26;67001.88;;;6.48;84.74
3844;BME280;1937;51.444;6.484;2023-03-04T08:13:56;66988.56;;;6.25;85.67
3844;BME280;1937;51.444;6.484;2023-03-04T08:16:25;66975.94;;;6.18;86.93
3844;BME280;1937;51.444;6.484;2023-03-04T08:18:55;66994.75;;;6.22;87.49
3844;BME280;1937;51.444;6.484;2023-03-04T08:21:25;66991.69;;;6.37;86.33
3844;BME280;1937;51.444;6.484;2023-03-04T08:23:57;67038.28;;;6.75;85.87
3844;BME280;1937;51.444;6.484;2023-03-04T08:26:28;67079.31;;;7.07;84.03
3844;BME280;1937;51.444;6.484;2023-03-04T08:28:59;67008.34;;;6.85;82.17
3844;BME280;1937;51.444;6.484;2023-03-04T08:31:27;67044.78;;;6.74;82.47
3844;BME280;1937;51.444;6.484;2023-03-04T08:33:56;67002.19;;;6.88;82.59
3844;BME280;1937;51.444;6.484;2023-03-04T08:36:24;67018.09;;;6.62;83.06
3844;BME280;1937;51.444;6.484;2023-03-04T08:38:52;66973.13;;;6.58;83.42
3844;BME280;1937;51.444;6.484;2023-03-04T08:41:22;67014.97;;;6.88;83.50
3844;BME280;1937;51.444;6.484;2023-03-04T08:43:52;67092.69;;;7.07;82.90
3844;BME280;1937;51.444;6.484;2023-03-04T08:46:21;67076.81;;;7.22;81.95
3844;BME280;1937;51.444;6.484;2023-03-04T08:48:49;67120.13;;;7.40;82.00
3844;BME280;1937;51.444;6.484;2023-03-04T08:51:17;67045.91;;;7.13;80.62
3844;BME280;1937;51.444;6.484;2023-03-04T08:53:47;67020.34;;;7.02;80.86
3844;BME280;1937;51.444;6.484;2023-03-04T08:56:15;67058.06;;;6.97;81.79
3844;BME280;1937;51.444;6.484;2023-03-04T08:58:45;67072.06;;;7.14;81.79
3844;BME280;1937;51.444;6.484;2023-03-04T09:01:14;67073.22;;;7.15;81.32
3844;BME280;1937;51.444;6.484;2023-03-04T09:03:42;67115.50;;;7.36;80.54
3844;BME280;1937;51.444;6.484;2023-03-04T09:06:15;67054.53;;;7.32;79.81
3844;BME280;1937;51.444;6.484;2023-03-04T09:08:44;67161.56;;;7.74;79.73
3844;BME280;1937;51.444;6.484;2023-03-04T09:11:13;67109.75;;;7.73;78.25
3844;BME280;1937;51.444;6.484;2023-03-04T09:13:42;67105.06;;;7.54;78.63
3844;BME280;1937;51.444;6.484;2023-03-04T09:16:13;67138.59;;;7.78;78.84
3844;BME280;1937;51.444;6.484;2023-03-04T09:18:42;67074.38;;;7.43;80.66
3844;BME280;1937;51.444;6.484;2023-03-04T09:21:10;67102.72;;;7.36;82.04
3844;BME280;1937;51.444;6.484;2023-03-04T09:23:39;67108.69;;;7.50;81.47
3844;BME280;1937;51.444;6.484;2023-03-04T09:26:13;67085.16;;;7.27;82.77
3844;BME280;1937;51.444;6.484;2023-03-04T09:28:42;67207.94;;;7.99;81.43
3844;BME280;1937;51.444;6.484;2023-03-04T09:31:16;67199.13;;;7.87;80.05
3844;BME280;1937;51.444;6.484;2023-03-04T09:33:44;67176.41;;;8.16;76.85
3844;BME280;1937;51.444;6.484;2023-03-04T09:36:14;67154.13;;;7.99;77.59
3844;BME280;1937;51.444;6.484;2023-03-04T09:38:42;67231.66;;;8.42;76.52
3844;BME280;1937;51.444;6.484;2023-03-04T09:41:16;67312.13;;;8.87;75.56
3844;BME280;1937;51.444;6.484;2023-03-04T09:43:45;67270.53;;;8.76;74.33
3844;BME280;1937;51.444;6.484;2023-03-04T09:46:18;67229.03;;;8.53;73.07
3844;BME280;1937;51.444;6.484;2023-03-04T09:48:51;67176.00;;;8.25;74.24
3844;BME280;1937;51.444;6.484;2023-03-04T09:51:27;67142.47;;;8.00;75.56
3844;BME280;1937;51.444;6.484;2023-03-04T09:54:04;67207.25;;;8.20;75.45
3844;BME280;1937;51.444;6.484;2023-03-04T09:56:36;67188.81;;;8.25;73.96
3844;BME280;1937;51.444;6.484;2023-03-04T09:59:10;67171.75;;;8.12;75.60
3844;BME280;1937;51.444;6.484;2023-03-04T10:01:46;67190.16;;;8.08;76.03
3844;BME280;1937;51.444;6.484;2023-03-04T10:04:20;67209.16;;;8.42;76.72
3844;BME280;1937;51.444;6.484;2023-03-04T10:06:53;67240.25;;;8.45;75.71
3844;BME280;1937;51.444;6.484;2023-03-04T10:09:26;67198.63;;;8.44;75.75
3844;BME280;1937;51.444;6.484;2023-03-04T10:11:58;67290.97;;;8.71;76.34
3844;BME280;1937;51.444;6.484;2023-03-04T10:14:34;67252.50;;;8.71;74.49
3844;BME280;1937;51.444;6.484;2023-03-04T10:17:07;67229.31;;;8.40;75.88
3844;BME280;1937;51.444;6.484;2023-03-04T10:19:50;67215.44;;;8.43;75.48
3844;BME280;1937;51.444;6.484;2023-03-04T10:22:22;67229.63;;;8.53;76.68
3844;BME280;1937;51.444;6.484;2023-03-04T10:24:54;67330.81;;;9.08;75.09
3844;BME280;1937;51.444;6.484;2023-03-04T10:27:24;67299.69;;;9.06;75.35
3844;BME280;1937;51.444;6.484;2023-03-04T10:29:53;67255.91;;;8.85;75.91
3844;BME280;1937;51.444;6.484;2023-03-04T10:32:22;67291.75;;;8.81;75.55
3844;BME280;1937;51.444;6.484;2023-03-04T10:34:51;67329.03;;;8.91;75.11
3844;BME280;1937;51.444;6.484;2023-03-04T10:37:19;67253.63;;;8.72;75.05
3844;BME280;1937;51.444;6.484;2023-03-04T10:39:48;67219.41;;;8.42;76.11
3844;BME280;1937;51.444;6.484;2023-03-04T10:42:32;67234.22;;;8.42;76.05
3844;BME280;1937;51.444;6.484;2023-03-04T10:45:03;67198.78;;;8.38;76.36
3844;BME280;1937;51.444;6.484;2023-03-04T10:47:34;67242.75;;;8.56;76.21
3844;BME280;1937;51.444;6.484;2023-03-04T10:50:03;67261.53;;;8.54;76.16
3844;BME280;1937;51.444;6.484;2023-03-04T10:52:33;67298.50;;;8.78;74.41
3844;BME280;1937;51.444;6.484;2023-03-04T10:55:04;67316.13;;;9.02;74.26
3844;BME280;1937;51.444;6.484;2023-03-04T10:57:36;67280.63;;;9.09;74.59
3844;BME280;1937;51.444;6.484;2023-03-04T11:00:22;67270.53;;;8.76;74.12
3844;BME280;1937;51.444;6.484;2023-03-04T11:02:52;67250.75;;;8.70;74.50
3844;BME280;1937;51.444;6.484;2023-03-04T11:05:39;67225.44;;;8.45;76.00
3844;BME280;1937;51.444;6.484;2023-03-04T11:08:18;67276.72;;;8.72;76.21
3844;BME280;1937;51.444;6.484;2023-03-04T11:10:47;67271.72;;;8.77;76.25
3844;BME280;1937;51.444;6.484;2023-03-04T11:13:21;67277.44;;;8.77;75.52
3844;BME280;1937;51.444;6.484;2023-03-04T11:15:53;67303.94;;;8.91;76.34
3844;BME280;1937;51.444;6.484;2023-03-04T11:18:27;67326.31;;;8.97;74.58
3844;BME280;1937;51.444;6.484;2023-03-04T11:21:00;67298.72;;;8.87;75.35
3844;BME280;1937;51.444;6.484;2023-03-04T11:23:34;67264.63;;;8.66;76.15
3844;BME280;1937;51.444;6.484;2023-03-04T11:26:11;67257.03;;;8.71;75.92
3844;BME280;1937;51.444;6.484;2023-03-04T11:28:45;67284.28;;;8.79;76.68
3844;BME280;1937;51.444;6.484;2023-03-04T11:31:19;67252.59;;;8.49;77.55
3844;BME280;1937;51.444;6.484;2023-03-04T11:33:54;67160.00;;;8.08;78.25
3844;BME280;1937;51.444;6.484;2023-03-04T11:36:28;67197.44;;;8.28;78.71
3844;BME280;1937;51.444;6.484;2023-03-04T11:39:00;67271.47;;;8.52;78.54
3844;BME280;1937;51.444;6.484;2023-03-04T11:41:31;67304.88;;;8.68;77.32
3844;BME280;1937;51.444;6.484;2023-03-04T11:44:02;67363.91;;;9.21;76.12
3844;BME280;1937;51.444;6.484;2023-03-04T11:46:50;67437.13;;;9.69;74.74
3844;BME280;1937;51.444;6.484;2023-03-04T11:49:48;67439.19;;;10.00;72.91
3844;BME280;1937;51.444;6.484;2023-03-04T11:52:27;67395.97;;;9.54;72.65
3844;BME280;1937;51.444;6.484;2023-03-04T11:55:10;67257.22;;;8.80;75.25
3844;BME280;1937;51.444;6.484;2023-03-04T11:57:49;67305.69;;;8.93;76.22
3844;BME280;1937;51.444;6.484;2023-03-04T12:00:27;67288.63;;;8.96;75.40
3844;BME280;1937;51.444;6.484;2023-03-04T12:06:05;67386.63;;;9.30;75.19
3844;BME280;1937;51.444;6.484;2023-03-04T12:08:47;67319.06;;;9.04;74.95
3844;BME280;1937;51.444;6.484;2023-03-04T12:11:26;67303.06;;;9.04;74.98
3844;BME280;1937;51.444;6.484;2023-03-04T12:14:18;67360.44;;;9.34;74.87
3844;BME280;1937;51.444;6.484;2023-03-04T12:19:49;67418.31;;;9.71;72.87
3844;BME280;1937;51.444;6.484;2023-03-04T12:22:32;67365.03;;;9.49;73.22
3844;BME280;1937;51.444;6.484;2023-03-04T12:25:36;67362.63;;;9.42;73.99
3844;BME280;1937;51.444;6.484;2023-03-04T12:31:19;67268.88;;;8.79;75.59
3844;BME280;1937;51.444;6.484;2023-03-04T12:34:06;67267.63;;;8.73;75.82
3844;BME280;1937;51.444;6.484;2023-03-04T12:36:47;67277.13;;;8.63;77.32
3844;BME280;1937;51.444;6.484;2023-03-04T12:39:24;67282.59;;;8.93;76.61
3844;BME280;1937;51.444;6.484;2023-03-04T12:42:03;67261.44;;;8.77;77.06
3844;BME280;1937;51.444;6.484;2023-03-04T12:44:39;67275.47;;;8.67;76.67
3844;BME280;1937;51.444;6.484;2023-03-04T12:47:17;67276.84;;;8.77;77.12
3844;BME280;1937;51.444;6.484;2023-03-04T12:49:54;67225.84;;;8.37;79.45
3844;BME280;1937;51.444;6.484;2023-03-04T12:52:34;67210.94;;;8.33;79.06
3844;BME280;1937;51.444;6.484;2023-03-04T12:55:11;67222.63;;;8.20;80.74
3844;BME280;1937;51.444;6.484;2023-03-04T12:57:42;67289.97;;;8.63;81.10
3844;BME280;1937;51.444;6.484;2023-03-04T13:00:19;67273.75;;;8.65;80.14
3844;BME280;1937;51.444;6.484;2023-03-04T13:02:55;67309.63;;;8.76;80.21
3844;BME280;1937;51.444;6.484;2023-03-04T13:08:35;67360.41;;;9.18;77.95
3844;BME280;1937;51.444;6.484;2023-03-04T13:11:43;67346.34;;;9.01;78.18
3844;BME280;1937;51.444;6.484;2023-03-04T13:14:26;67328.69;;;8.88;78.35
3844;BME280;1937;51.444;6.484;2023-03-04T13:16:58;67268.31;;;8.78;79.86
3844;BME280;1937;51.444;6.484;2023-03-04T13:19:44;67279.25;;;8.56;81.49
3844;BME280;1937;51.444;6.484;2023-03-04T13:22:31;67256.97;;;8.28;83.54
3844;BME280;1937;51.444;6.484;2023-03-04T13:25:25;67274.75;;;8.46;83.83
3844;BME280;1937;51.444;6.484;2023-03-04T13:28:05;67309.09;;;8.65;83.87
3844;BME280;1937;51.444;6.484;2023-03-04T13:31:11;67331.66;;;8.80;81.72
3844;BME280;1937;51.444;6.484;2023-03-04T13:34:01;67329.91;;;8.78;80.86
3844;BME280;1937;51.444;6.484;2023-03-04T13:39:35;67373.72;;;9.14;78.26
3844;BME280;1937;51.444;6.484;2023-03-04T13:45:27;67369.09;;;9.10;79.63
3844;BME280;1937;51.444;6.484;2023-03-04T13:47:55;67391.69;;;9.14;78.88
3844;BME280;1937;51.444;6.484;2023-03-04T13:50:34;67336.25;;;8.95;79.49
3844;BME280;1937;51.444;6.484;2023-03-04T13:53:26;67310.44;;;8.75;80.31
3844;BME280;1937;51.444;6.484;2023-03-04T13:56:17;67297.31;;;8.61;82.15
3844;BME280;1937;51.444;6.484;2023-03-04T13:58:50;67302.34;;;8.56;82.64
3844;BME280;1937;51.444;6.484;2023-03-04T14:01:24;67338.44;;;8.77;83.90
3844;BME280;1937;51.444;6.484;2023-03-04T14:03:53;67305.63;;;8.50;84.12
3844;BME280;1937;51.444;6.484;2023-03-04T14:06:23;67329.03;;;8.64;84.23
3844;BME280;1937;51.444;6.484;2023-03-04T14:08:53;67319.22;;;8.60;85.47
3844;BME280;1937;51.444;6.484;2023-03-04T14:11:26;67281.97;;;8.50;84.45
3844;BME280;1937;51.444;6.484;2023-03-04T14:13:57;67291.56;;;8.45;85.62